Branchville, Alabama
Current Conditions -  °F | °C
As of 2:53 PM on Thursday 23 Oct 2014 (Local Time) from KBHM Reporting Station
Broken Clouds Broken Clouds  
Wind Chill: 72°   Ceiling: 25000
Heat Index: 72°   Visibility: 10mi
Dew Point: 41°   Wind: 8mph
Humidity: 33%   Direction: 320°NW
Pressure: 30.08"   Gusts: NA
Location:  33.6693°N, 86.4042°W
Report Text: KBHM 231953Z 32007KT 10SM BKN250 22/05 A3008 RMK AO2 SLP184 T02220050
Loading
Personal Weather Stations






























Interactive Weather Map
Tropical Storm Tracking
New forecast layout! Learn more

10-Day Weather Forecast

Advertisements
Track Severe Weather on mobile